Sydney, North Dakota
Current Conditions -  °F | °C
As of 8:56 AM on Saturday 20 Dec 2014 (Local Time) from KJMS Reporting Station
Moderate Fog Moderate Fog  
Wind Chill: 13°   Ceiling: 200
Heat Index: 22°   Visibility: 0.25mi
Dew Point: 18°   Wind: 7mph
Humidity: 85%   Direction: 160°SSE
Pressure: 29.96"   Gusts: NA
Location:  46.8494°N, 98.7424°W
Report Text: KJMS 201456Z AUTO 16006KT 1/4SM FZFG VV002 M06/M08 A2996 RMK AO2 SLP168 I1000 I3001 T10561078 55002
Loading
Personal Weather Stations






























Interactive Weather Map New forecast layout! Learn more

10-Day Weather Forecast

Advertisements
Track Severe Weather on mobile